Terminal Aerodrome Forecast
Issued by NWS

Home | Current Version | Previous Version | Text Only | Print | Product List | Glossary On
Versions: 1 2 3 4 5 6 7 8 9 10 11 12 13 14 15 16 17
341
FTUS44 KTSA 281748
TAFMLC
TAF
KMLC 281748Z 2818/0118 20012G20KT 6SM BR BKN020
     FM281900 20014G24KT P6SM BKN025 BKN250
     FM282200 20012G20KT P6SM SCT030 BKN250
     FM010600 20012G20KT P6SM VCTS BKN025CB OVC120
     FM010900 31015G25KT P6SM BKN250=

USA.gov is the U.S. government's official web portal to all federal, state and local government web resources and services.